sensor_id;sensor_type;location;lat;lon;timestamp;pressure;altitude;pressure_sealevel;temperature;humidity
38806;BME280;25635;51.146;17.162;2023-06-10T00:01:52;99958.27;;;14.95;86.47
38806;BME280;25635;51.146;17.162;2023-06-10T00:04:22;99958.15;;;14.93;86.55
38806;BME280;25635;51.146;17.162;2023-06-10T00:06:48;99960.77;;;14.93;86.82
38806;BME280;25635;51.146;17.162;2023-06-10T00:09:16;99964.70;;;14.97;87.05
38806;BME280;25635;51.146;17.162;2023-06-10T00:11:43;99966.93;;;14.98;86.91
38806;BME280;25635;51.146;17.162;2023-06-10T00:14:10;99964.64;;;14.98;86.83
38806;BME280;25635;51.146;17.162;2023-06-10T00:16:36;99961.31;;;14.98;86.74
38806;BME280;25635;51.146;17.162;2023-06-10T00:19:03;99961.84;;;14.99;86.73
38806;BME280;25635;51.146;17.162;2023-06-10T00:21:32;99959.14;;;15.01;86.82
38806;BME280;25635;51.146;17.162;2023-06-10T00:24:10;99960.64;;;15.04;86.74
38806;BME280;25635;51.146;17.162;2023-06-10T00:26:40;99962.84;;;15.07;86.63
38806;BME280;25635;51.146;17.162;2023-06-10T00:29:08;99960.99;;;15.09;86.72
38806;BME280;25635;51.146;17.162;2023-06-10T00:31:36;99958.77;;;15.13;86.82
38806;BME280;25635;51.146;17.162;2023-06-10T00:34:04;99961.09;;;15.17;86.72
38806;BME280;25635;51.146;17.162;2023-06-10T00:36:30;99959.23;;;15.21;86.65
38806;BME280;25635;51.146;17.162;2023-06-10T00:38:57;99960.88;;;15.25;86.85
38806;BME280;25635;51.146;17.162;2023-06-10T00:41:24;99960.88;;;15.25;86.74
38806;BME280;25635;51.146;17.162;2023-06-10T00:43:52;99960.14;;;15.26;86.93
38806;BME280;25635;51.146;17.162;2023-06-10T00:46:20;99959.75;;;15.27;86.74
38806;BME280;25635;51.146;17.162;2023-06-10T00:48:47;99961.29;;;15.28;86.78
38806;BME280;25635;51.146;17.162;2023-06-10T00:51:16;99959.84;;;15.30;86.68
38806;BME280;25635;51.146;17.162;2023-06-10T00:53:43;99962.97;;;15.31;86.48
38806;BME280;25635;51.146;17.162;2023-06-10T00:56:10;99963.80;;;15.32;86.62
38806;BME280;25635;51.146;17.162;2023-06-10T00:58:37;99963.07;;;15.33;86.56
38806;BME280;25635;51.146;17.162;2023-06-10T01:01:04;99964.30;;;15.33;86.41
38806;BME280;25635;51.146;17.162;2023-06-10T01:03:31;99966.58;;;15.33;86.40
38806;BME280;25635;51.146;17.162;2023-06-10T01:08:54;99969.59;;;15.33;86.32
38806;BME280;25635;51.146;17.162;2023-06-10T01:11:28;99967.64;;;15.33;86.35
38806;BME280;25635;51.146;17.162;2023-06-10T01:13:55;99969.73;;;15.34;86.51
38806;BME280;25635;51.146;17.162;2023-06-10T01:16:23;99967.96;;;15.34;86.53
38806;BME280;25635;51.146;17.162;2023-06-10T01:18:50;99970.58;;;15.35;86.59
38806;BME280;25635;51.146;17.162;2023-06-10T01:21:20;99964.56;;;15.36;86.47
38806;BME280;25635;51.146;17.162;2023-06-10T01:23:48;99968.14;;;15.39;86.48
38806;BME280;25635;51.146;17.162;2023-06-10T01:26:15;99972.10;;;15.42;86.84
38806;BME280;25635;51.146;17.162;2023-06-10T01:28:57;99969.34;;;15.46;87.15
38806;BME280;25635;51.146;17.162;2023-06-10T01:31:40;99968.21;;;15.49;87.04
38806;BME280;25635;51.146;17.162;2023-06-10T01:34:10;99963.70;;;15.52;87.43
38806;BME280;25635;51.146;17.162;2023-06-10T01:36:40;99958.33;;;15.55;88.62
38806;BME280;25635;51.146;17.162;2023-06-10T01:39:08;99953.05;;;15.56;88.42
38806;BME280;25635;51.146;17.162;2023-06-10T01:41:37;99950.08;;;15.55;88.90
38806;BME280;25635;51.146;17.162;2023-06-10T01:44:05;99949.72;;;15.55;89.27
38806;BME280;25635;51.146;17.162;2023-06-10T01:46:32;99957.13;;;15.55;88.99
38806;BME280;25635;51.146;17.162;2023-06-10T01:48:58;99959.04;;;15.55;89.42
38806;BME280;25635;51.146;17.162;2023-06-10T01:51:25;99957.95;;;15.56;89.42
38806;BME280;25635;51.146;17.162;2023-06-10T01:53:51;99961.41;;;15.57;89.83
38806;BME280;25635;51.146;17.162;2023-06-10T01:56:18;99962.45;;;15.58;90.56
38806;BME280;25635;51.146;17.162;2023-06-10T01:58:46;99962.05;;;15.60;90.71
38806;BME280;25635;51.146;17.162;2023-06-10T02:01:13;99957.29;;;15.60;90.40
38806;BME280;25635;51.146;17.162;2023-06-10T02:03:40;99955.86;;;15.61;91.42
38806;BME280;25635;51.146;17.162;2023-06-10T02:06:07;99960.59;;;15.62;91.58
38806;BME280;25635;51.146;17.162;2023-06-10T02:08:34;99954.75;;;15.63;92.38
38806;BME280;25635;51.146;17.162;2023-06-10T02:11:01;99953.48;;;15.64;92.52
38806;BME280;25635;51.146;17.162;2023-06-10T02:13:27;99955.20;;;15.66;92.56
38806;BME280;25635;51.146;17.162;2023-06-10T02:15:55;99955.13;;;15.67;91.97
38806;BME280;25635;51.146;17.162;2023-06-10T02:18:22;99954.52;;;15.70;92.46
38806;BME280;25635;51.146;17.162;2023-06-10T02:20:49;99954.30;;;15.72;92.31
38806;BME280;25635;51.146;17.162;2023-06-10T02:23:15;99956.92;;;15.73;92.62
38806;BME280;25635;51.146;17.162;2023-06-10T02:25:42;99953.17;;;15.74;92.58
38806;BME280;25635;51.146;17.162;2023-06-10T02:28:09;99956.09;;;15.76;92.51
38806;BME280;25635;51.146;17.162;2023-06-10T02:30:41;99954.48;;;15.78;92.57
38806;BME280;25635;51.146;17.162;2023-06-10T02:33:08;99956.85;;;15.80;92.66
38806;BME280;25635;51.146;17.162;2023-06-10T02:35:38;99955.94;;;15.81;92.33
38806;BME280;25635;51.146;17.162;2023-06-10T02:38:05;99957.29;;;15.83;92.27
38806;BME280;25635;51.146;17.162;2023-06-10T02:40:32;99954.94;;;15.85;91.97
38806;BME280;25635;51.146;17.162;2023-06-10T02:42:59;99955.08;;;15.86;91.84
38806;BME280;25635;51.146;17.162;2023-06-10T02:45:25;99958.35;;;15.88;91.65
38806;BME280;25635;51.146;17.162;2023-06-10T02:47:52;99955.13;;;15.89;91.40
38806;BME280;25635;51.146;17.162;2023-06-10T02:50:19;99950.58;;;15.89;91.67
38806;BME280;25635;51.146;17.162;2023-06-10T02:52:46;99950.03;;;15.90;91.67
38806;BME280;25635;51.146;17.162;2023-06-10T02:55:12;99955.64;;;15.90;91.02
38806;BME280;25635;51.146;17.162;2023-06-10T02:57:39;99962.65;;;15.91;90.96
38806;BME280;25635;51.146;17.162;2023-06-10T03:00:06;99965.74;;;15.93;91.05
38806;BME280;25635;51.146;17.162;2023-06-10T03:02:37;99973.44;;;15.94;90.88
38806;BME280;25635;51.146;17.162;2023-06-10T03:05:06;99976.85;;;15.97;90.59
38806;BME280;25635;51.146;17.162;2023-06-10T03:07:36;99976.89;;;16.01;90.59
38806;BME280;25635;51.146;17.162;2023-06-10T03:10:04;99975.91;;;16.04;90.63
38806;BME280;25635;51.146;17.162;2023-06-10T03:12:30;99978.02;;;16.05;90.74
38806;BME280;25635;51.146;17.162;2023-06-10T03:14:57;99978.89;;;16.05;90.90
38806;BME280;25635;51.146;17.162;2023-06-10T03:17:24;99982.63;;;16.03;90.82
38806;BME280;25635;51.146;17.162;2023-06-10T03:19:51;99985.41;;;16.04;90.81
38806;BME280;25635;51.146;17.162;2023-06-10T03:22:18;99987.56;;;16.03;90.68
38806;BME280;25635;51.146;17.162;2023-06-10T03:24:45;99987.02;;;16.03;90.79
38806;BME280;25635;51.146;17.162;2023-06-10T03:27:13;99989.27;;;16.05;90.96
38806;BME280;25635;51.146;17.162;2023-06-10T03:29:39;99991.04;;;16.04;90.74
38806;BME280;25635;51.146;17.162;2023-06-10T03:32:06;99990.59;;;16.07;90.77
38806;BME280;25635;51.146;17.162;2023-06-10T03:34:33;99990.70;;;16.08;90.76
38806;BME280;25635;51.146;17.162;2023-06-10T03:37:00;99991.52;;;16.11;90.66
38806;BME280;25635;51.146;17.162;2023-06-10T03:39:26;99994.77;;;16.13;90.86
38806;BME280;25635;51.146;17.162;2023-06-10T03:41:55;99992.77;;;16.15;90.79
38806;BME280;25635;51.146;17.162;2023-06-10T03:44:24;99997.13;;;16.16;90.91
38806;BME280;25635;51.146;17.162;2023-06-10T03:46:52;99997.82;;;16.17;90.83
38806;BME280;25635;51.146;17.162;2023-06-10T03:49:20;100004.13;;;16.17;90.97
38806;BME280;25635;51.146;17.162;2023-06-10T03:51:46;100005.34;;;16.18;91.21
38806;BME280;25635;51.146;17.162;2023-06-10T03:54:13;100008.11;;;16.19;90.86
38806;BME280;25635;51.146;17.162;2023-06-10T03:56:40;100010.17;;;16.21;90.98
38806;BME280;25635;51.146;17.162;2023-06-10T03:59:09;100014.13;;;16.24;91.09
38806;BME280;25635;51.146;17.162;2023-06-10T04:01:36;100018.23;;;16.26;90.89
38806;BME280;25635;51.146;17.162;2023-06-10T04:04:04;100021.48;;;16.29;90.91
38806;BME280;25635;51.146;17.162;2023-06-10T04:06:31;100019.33;;;16.31;90.98
38806;BME280;25635;51.146;17.162;2023-06-10T04:08:58;100022.73;;;16.34;90.83
38806;BME280;25635;51.146;17.162;2023-06-10T04:11:25;100020.39;;;16.36;90.81
38806;BME280;25635;51.146;17.162;2023-06-10T04:13:52;100018.38;;;16.38;90.81
38806;BME280;25635;51.146;17.162;2023-06-10T04:16:18;100016.38;;;16.39;90.86
38806;BME280;25635;51.146;17.162;2023-06-10T04:18:45;100017.38;;;16.42;90.80
38806;BME280;25635;51.146;17.162;2023-06-10T04:21:11;100023.83;;;16.43;90.89
38806;BME280;25635;51.146;17.162;2023-06-10T04:23:38;100024.14;;;16.44;90.63
38806;BME280;25635;51.146;17.162;2023-06-10T04:26:05;100021.59;;;16.47;90.49
38806;BME280;25635;51.146;17.162;2023-06-10T04:28:32;100023.09;;;16.49;90.49
38806;BME280;25635;51.146;17.162;2023-06-10T04:30:59;100024.10;;;16.50;90.53
38806;BME280;25635;51.146;17.162;2023-06-10T04:33:25;100020.91;;;16.51;90.50
38806;BME280;25635;51.146;17.162;2023-06-10T04:35:53;100017.00;;;16.52;90.72
38806;BME280;25635;51.146;17.162;2023-06-10T04:38:19;100018.95;;;16.52;90.52
38806;BME280;25635;51.146;17.162;2023-06-10T04:40:47;100020.17;;;16.52;90.62
38806;BME280;25635;51.146;17.162;2023-06-10T04:43:13;100020.17;;;16.52;90.61
38806;BME280;25635;51.146;17.162;2023-06-10T04:45:40;100018.39;;;16.53;90.52
38806;BME280;25635;51.146;17.162;2023-06-10T04:48:11;100019.98;;;16.53;90.73
38806;BME280;25635;51.146;17.162;2023-06-10T04:50:37;100022.98;;;16.52;90.76
38806;BME280;25635;51.146;17.162;2023-06-10T04:53:05;100024.70;;;16.53;90.66
38806;BME280;25635;51.146;17.162;2023-06-10T04:55:33;100021.60;;;16.56;90.83
38806;BME280;25635;51.146;17.162;2023-06-10T04:58:01;100022.80;;;16.57;90.59
38806;BME280;25635;51.146;17.162;2023-06-10T05:00:27;100028.15;;;16.60;90.64
38806;BME280;25635;51.146;17.162;2023-06-10T05:02:54;100027.20;;;16.62;90.89
38806;BME280;25635;51.146;17.162;2023-06-10T05:05:22;100028.89;;;16.64;90.88
38806;BME280;25635;51.146;17.162;2023-06-10T05:07:49;100031.06;;;16.67;90.77
38806;BME280;25635;51.146;17.162;2023-06-10T05:10:16;100031.63;;;16.71;90.64
38806;BME280;25635;51.146;17.162;2023-06-10T05:12:43;100035.37;;;16.75;90.91
38806;BME280;25635;51.146;17.162;2023-06-10T05:15:10;100037.70;;;16.79;90.99
38806;BME280;25635;51.146;17.162;2023-06-10T05:17:36;100041.63;;;16.83;90.86
38806;BME280;25635;51.146;17.162;2023-06-10T05:20:04;100042.31;;;16.88;90.82
38806;BME280;25635;51.146;17.162;2023-06-10T05:22:30;100047.21;;;16.94;90.74
38806;BME280;25635;51.146;17.162;2023-06-10T05:24:57;100046.87;;;16.99;90.93
38806;BME280;25635;51.146;17.162;2023-06-10T05:27:24;100051.67;;;17.03;90.59
38806;BME280;25635;51.146;17.162;2023-06-10T05:29:52;100055.64;;;17.09;90.40
38806;BME280;25635;51.146;17.162;2023-06-10T05:32:18;100056.65;;;17.15;90.24
38806;BME280;25635;51.146;17.162;2023-06-10T05:34:45;100058.36;;;17.21;90.31
38806;BME280;25635;51.146;17.162;2023-06-10T05:37:12;100060.36;;;17.29;90.27
38806;BME280;25635;51.146;17.162;2023-06-10T05:39:40;100060.36;;;17.38;90.29
38806;BME280;25635;51.146;17.162;2023-06-10T05:42:07;100060.56;;;17.47;90.32
38806;BME280;25635;51.146;17.162;2023-06-10T05:44:34;100060.84;;;17.58;90.08
38806;BME280;25635;51.146;17.162;2023-06-10T05:47:01;100066.94;;;17.69;90.45
38806;BME280;25635;51.146;17.162;2023-06-10T05:49:28;100064.93;;;17.79;90.46
38806;BME280;25635;51.146;17.162;2023-06-10T05:51:55;100069.36;;;17.88;89.92
38806;BME280;25635;51.146;17.162;2023-06-10T05:54:24;100073.93;;;17.97;89.89
38806;BME280;25635;51.146;17.162;2023-06-10T05:56:50;100073.31;;;18.04;89.57
38806;BME280;25635;51.146;17.162;2023-06-10T05:59:17;100076.19;;;18.11;89.82
38806;BME280;25635;51.146;17.162;2023-06-10T06:01:44;100078.36;;;18.19;89.47
38806;BME280;25635;51.146;17.162;2023-06-10T06:04:10;100078.38;;;18.27;89.14
38806;BME280;25635;51.146;17.162;2023-06-10T06:06:38;100078.90;;;18.36;88.83
38806;BME280;25635;51.146;17.162;2023-06-10T06:09:06;100079.13;;;18.42;88.71
38806;BME280;25635;51.146;17.162;2023-06-10T06:11:34;100075.38;;;18.48;88.36
38806;BME280;25635;51.146;17.162;2023-06-10T06:14:01;100077.02;;;18.55;88.27
38806;BME280;25635;51.146;17.162;2023-06-10T06:16:28;100073.79;;;18.60;88.13
38806;BME280;25635;51.146;17.162;2023-06-10T06:18:54;100073.63;;;18.68;87.97
38806;BME280;25635;51.146;17.162;2023-06-10T06:21:21;100076.64;;;18.76;87.81
38806;BME280;25635;51.146;17.162;2023-06-10T06:23:48;100076.07;;;18.82;87.68
38806;BME280;25635;51.146;17.162;2023-06-10T06:26:14;100075.11;;;18.88;87.31
38806;BME280;25635;51.146;17.162;2023-06-10T06:28:41;100078.30;;;18.91;86.69
38806;BME280;25635;51.146;17.162;2023-06-10T06:31:08;100080.33;;;18.93;86.84
38806;BME280;25635;51.146;17.162;2023-06-10T06:33:35;100082.36;;;18.95;86.67
38806;BME280;25635;51.146;17.162;2023-06-10T06:36:01;100088.38;;;18.95;86.42
38806;BME280;25635;51.146;17.162;2023-06-10T06:38:28;100088.32;;;18.96;86.36
38806;BME280;25635;51.146;17.162;2023-06-10T06:40:55;100093.05;;;18.97;86.70
38806;BME280;25635;51.146;17.162;2023-06-10T06:43:21;100093.91;;;19.02;86.68
38806;BME280;25635;51.146;17.162;2023-06-10T06:45:48;100093.28;;;19.04;86.22
38806;BME280;25635;51.146;17.162;2023-06-10T06:48:15;100093.87;;;19.07;86.07
38806;BME280;25635;51.146;17.162;2023-06-10T06:50:42;100095.77;;;19.12;86.08
38806;BME280;25635;51.146;17.162;2023-06-10T06:53:08;100099.52;;;19.15;85.91
38806;BME280;25635;51.146;17.162;2023-06-10T06:55:35;100105.36;;;19.22;86.15
38806;BME280;25635;51.146;17.162;2023-06-10T06:58:02;100108.29;;;19.28;85.72
38806;BME280;25635;51.146;17.162;2023-06-10T07:00:31;100109.78;;;19.34;85.81
38806;BME280;25635;51.146;17.162;2023-06-10T07:02:58;100113.49;;;19.41;85.63
38806;BME280;25635;51.146;17.162;2023-06-10T07:05:25;100114.74;;;19.49;85.38
38806;BME280;25635;51.146;17.162;2023-06-10T07:07:55;100117.77;;;19.56;85.27
38806;BME280;25635;51.146;17.162;2023-06-10T07:10:23;100119.75;;;19.63;85.64
38806;BME280;25635;51.146;17.162;2023-06-10T07:12:50;100123.09;;;19.72;85.48
38806;BME280;25635;51.146;17.162;2023-06-10T07:15:17;100123.24;;;19.80;85.65
38806;BME280;25635;51.146;17.162;2023-06-10T07:17:44;100125.18;;;19.88;84.95
38806;BME280;25635;51.146;17.162;2023-06-10T07:20:11;100127.05;;;19.93;85.05
38806;BME280;25635;51.146;17.162;2023-06-10T07:22:38;100125.04;;;20.01;84.68
38806;BME280;25635;51.146;17.162;2023-06-10T07:25:08;100133.03;;;20.09;83.84
38806;BME280;25635;51.146;17.162;2023-06-10T07:27:35;100133.08;;;20.15;83.76
38806;BME280;25635;51.146;17.162;2023-06-10T07:30:05;100135.51;;;20.23;83.53
38806;BME280;25635;51.146;17.162;2023-06-10T07:32:33;100137.05;;;20.35;84.03
38806;BME280;25635;51.146;17.162;2023-06-10T07:34:59;100138.02;;;20.44;83.61
38806;BME280;25635;51.146;17.162;2023-06-10T07:37:26;100138.63;;;20.57;83.78
38806;BME280;25635;51.146;17.162;2023-06-10T07:39:53;100137.21;;;20.71;83.74
38806;BME280;25635;51.146;17.162;2023-06-10T07:42:20;100142.16;;;20.86;82.53
38806;BME280;25635;51.146;17.162;2023-06-10T07:44:46;100142.11;;;20.96;81.98
38806;BME280;25635;51.146;17.162;2023-06-10T07:47:13;100142.08;;;21.11;81.15
38806;BME280;25635;51.146;17.162;2023-06-10T07:49:40;100141.69;;;21.25;80.87
38806;BME280;25635;51.146;17.162;2023-06-10T07:52:08;100140.20;;;21.36;79.93
38806;BME280;25635;51.146;17.162;2023-06-10T07:54:35;100140.77;;;21.50;79.61
38806;BME280;25635;51.146;17.162;2023-06-10T07:57:02;100143.49;;;21.64;79.60
38806;BME280;25635;51.146;17.162;2023-06-10T07:59:28;100149.34;;;21.77;78.26
38806;BME280;25635;51.146;17.162;2023-06-10T08:01:55;100153.33;;;21.95;79.53
38806;BME280;25635;51.146;17.162;2023-06-10T08:04:22;100148.73;;;22.17;77.22
38806;BME280;25635;51.146;17.162;2023-06-10T08:06:48;100147.20;;;22.35;77.95
38806;BME280;25635;51.146;17.162;2023-06-10T08:09:16;100144.91;;;22.59;76.82
38806;BME280;25635;51.146;17.162;2023-06-10T08:11:42;100148.44;;;22.81;76.52
38806;BME280;25635;51.146;17.162;2023-06-10T08:14:09;100150.43;;;23.07;76.60
38806;BME280;25635;51.146;17.162;2023-06-10T08:16:36;100147.70;;;23.37;75.06
38806;BME280;25635;51.146;17.162;2023-06-10T08:19:03;100150.19;;;23.69;74.06
38806;BME280;25635;51.146;17.162;2023-06-10T08:21:35;100155.20;;;23.96;72.73
38806;BME280;25635;51.146;17.162;2023-06-10T08:24:07;100152.57;;;24.26;71.76
38806;BME280;25635;51.146;17.162;2023-06-10T08:26:33;100153.59;;;24.60;71.41
38806;BME280;25635;51.146;17.162;2023-06-10T08:29:00;100149.35;;;24.90;70.78
38806;BME280;25635;51.146;17.162;2023-06-10T08:31:27;100152.00;;;25.28;70.86
38806;BME280;25635;51.146;17.162;2023-06-10T08:33:54;100154.36;;;25.60;69.58
38806;BME280;25635;51.146;17.162;2023-06-10T08:36:20;100151.86;;;25.90;68.76
38806;BME280;25635;51.146;17.162;2023-06-10T08:38:47;100151.63;;;26.15;66.66
38806;BME280;25635;51.146;17.162;2023-06-10T08:41:17;100155.89;;;26.40;65.78
38806;BME280;25635;51.146;17.162;2023-06-10T08:43:48;100156.09;;;26.64;63.99
38806;BME280;25635;51.146;17.162;2023-06-10T08:46:18;100153.54;;;26.90;63.65
38806;BME280;25635;51.146;17.162;2023-06-10T08:48:47;100155.34;;;27.18;63.49
38806;BME280;25635;51.146;17.162;2023-06-10T08:51:17;100160.21;;;27.45;61.02
38806;BME280;25635;51.146;17.162;2023-06-10T08:54:00;100162.98;;;27.64;59.86
38806;BME280;25635;51.146;17.162;2023-06-10T08:56:29;100166.16;;;27.76;57.49
38806;BME280;25635;51.146;17.162;2023-06-10T08:58:57;100167.27;;;27.85;59.02
38806;BME280;25635;51.146;17.162;2023-06-10T09:01:25;100168.77;;;28.10;58.77
38806;BME280;25635;51.146;17.162;2023-06-10T09:03:53;100170.10;;;28.36;59.34
38806;BME280;25635;51.146;17.162;2023-06-10T09:06:21;100176.67;;;28.65;58.49
38806;BME280;25635;51.146;17.162;2023-06-10T09:08:48;100174.65;;;28.85;57.19
38806;BME280;25635;51.146;17.162;2023-06-10T09:11:16;100172.38;;;28.99;56.21
38806;BME280;25635;51.146;17.162;2023-06-10T09:13:42;100168.76;;;29.10;56.83
38806;BME280;25635;51.146;17.162;2023-06-10T09:16:09;100169.54;;;29.30;56.58
38806;BME280;25635;51.146;17.162;2023-06-10T09:18:38;100166.04;;;29.43;55.08
38806;BME280;25635;51.146;17.162;2023-06-10T09:21:04;100160.91;;;29.57;55.88
38806;BME280;25635;51.146;17.162;2023-06-10T09:23:32;100159.35;;;29.77;54.90
38806;BME280;25635;51.146;17.162;2023-06-10T09:25:59;100157.59;;;29.90;53.10
38806;BME280;25635;51.146;17.162;2023-06-10T09:28:26;100155.30;;;29.90;52.95
38806;BME280;25635;51.146;17.162;2023-06-10T09:31:03;100158.55;;;30.04;53.15
38806;BME280;25635;51.146;17.162;2023-06-10T09:33:31;100154.77;;;30.18;53.39
38806;BME280;25635;51.146;17.162;2023-06-10T09:36:01;100150.55;;;30.39;51.94
38806;BME280;25635;51.146;17.162;2023-06-10T09:38:32;100149.52;;;30.46;51.72
38806;BME280;25635;51.146;17.162;2023-06-10T09:40:59;100141.55;;;30.62;52.00
38806;BME280;25635;51.146;17.162;2023-06-10T09:43:41;100142.38;;;30.74;50.45
38806;BME280;25635;51.146;17.162;2023-06-10T09:46:19;100139.46;;;30.90;51.27
38806;BME280;25635;51.146;17.162;2023-06-10T09:48:47;100138.05;;;31.11;50.88
38806;BME280;25635;51.146;17.162;2023-06-10T09:51:14;100138.94;;;31.24;50.29
38806;BME280;25635;51.146;17.162;2023-06-10T09:53:48;100146.19;;;31.16;48.15
38806;BME280;25635;51.146;17.162;2023-06-10T09:56:15;100138.30;;;31.01;48.54
38806;BME280;25635;51.146;17.162;2023-06-10T09:58:42;100143.00;;;30.89;48.01
38806;BME280;25635;51.146;17.162;2023-06-10T10:01:12;100140.98;;;30.62;48.00
38806;BME280;25635;51.146;17.162;2023-06-10T10:03:44;100139.36;;;30.37;48.48
38806;BME280;25635;51.146;17.162;2023-06-10T10:06:12;100142.02;;;30.13;48.02
38806;BME280;25635;51.146;17.162;2023-06-10T10:08:39;100145.49;;;29.89;47.94
38806;BME280;25635;51.146;17.162;2023-06-10T10:11:07;100143.98;;;29.70;48.57
38806;BME280;25635;51.146;17.162;2023-06-10T10:13:34;100138.29;;;29.57;49.19
38806;BME280;25635;51.146;17.162;2023-06-10T10:16:15;100129.93;;;29.39;48.93
38806;BME280;25635;51.146;17.162;2023-06-10T10:18:45;100128.56;;;29.16;48.56
38806;BME280;25635;51.146;17.162;2023-06-10T10:21:13;100123.88;;;28.95;48.66
38806;BME280;25635;51.146;17.162;2023-06-10T10:23:51;100115.08;;;28.85;48.94
38806;BME280;25635;51.146;17.162;2023-06-10T10:26:21;100109.91;;;28.80;49.38
38806;BME280;25635;51.146;17.162;2023-06-10T10:31:29;100105.27;;;28.72;48.98
38806;BME280;25635;51.146;17.162;2023-06-10T10:33:59;100103.83;;;28.67;49.88
38806;BME280;25635;51.146;17.162;2023-06-10T10:36:27;100104.39;;;28.76;49.48
38806;BME280;25635;51.146;17.162;2023-06-10T10:38:54;100101.88;;;28.78;49.12
38806;BME280;25635;51.146;17.162;2023-06-10T10:41:24;100100.89;;;28.72;48.28
38806;BME280;25635;51.146;17.162;2023-06-10T10:43:53;100094.77;;;28.66;49.04
38806;BME280;25635;51.146;17.162;2023-06-10T10:46:20;100096.15;;;28.71;48.26
38806;BME280;25635;51.146;17.162;2023-06-10T10:48:52;100092.91;;;28.76;48.50
38806;BME280;25635;51.146;17.162;2023-06-10T10:51:19;100089.31;;;28.80;48.13
38806;BME280;25635;51.146;17.162;2023-06-10T10:54:09;100082.39;;;28.91;48.15
38806;BME280;25635;51.146;17.162;2023-06-10T10:56:36;100070.45;;;29.01;47.82
38806;BME280;25635;51.146;17.162;2023-06-10T10:59:04;100067.24;;;29.17;46.70
38806;BME280;25635;51.146;17.162;2023-06-10T11:01:42;100068.83;;;29.24;44.99
38806;BME280;25635;51.146;17.162;2023-06-10T11:04:11;100078.14;;;29.26;46.16
38806;BME280;25635;51.146;17.162;2023-06-10T11:06:38;100071.64;;;29.37;45.12
38806;BME280;25635;51.146;17.162;2023-06-10T11:09:27;100070.41;;;29.44;43.71
38806;BME280;25635;51.146;17.162;2023-06-10T11:11:59;100069.73;;;29.56;43.86
38806;BME280;25635;51.146;17.162;2023-06-10T11:14:27;100075.33;;;29.70;43.27
38806;BME280;25635;51.146;17.162;2023-06-10T11:16:58;100076.58;;;29.88;43.34
38806;BME280;25635;51.146;17.162;2023-06-10T11:19:36;100075.31;;;30.04;41.75
38806;BME280;25635;51.146;17.162;2023-06-10T11:22:08;100075.61;;;30.10;41.18
38806;BME280;25635;51.146;17.162;2023-06-10T11:24:37;100070.20;;;30.28;42.27
38806;BME280;25635;51.146;17.162;2023-06-10T11:27:21;100069.67;;;30.46;40.33
38806;BME280;25635;51.146;17.162;2023-06-10T11:32:32;100065.60;;;30.60;40.34
38806;BME280;25635;51.146;17.162;2023-06-10T11:35:02;100066.71;;;30.66;39.97
38806;BME280;25635;51.146;17.162;2023-06-10T11:37:30;100065.04;;;30.67;40.16
38806;BME280;25635;51.146;17.162;2023-06-10T11:39:57;100064.30;;;30.76;39.57
38806;BME280;25635;51.146;17.162;2023-06-10T11:42:25;100069.23;;;30.81;39.91
38806;BME280;25635;51.146;17.162;2023-06-10T14:39:30;100045.99;;;29.46;29.12
38806;BME280;25635;51.146;17.162;2023-06-10T14:41:56;100046.52;;;29.35;29.96
38806;BME280;25635;51.146;17.162;2023-06-10T14:44:23;100042.63;;;29.38;30.49
38806;BME280;25635;51.146;17.162;2023-06-10T14:46:50;100046.38;;;29.40;30.26
38806;BME280;25635;51.146;17.162;2023-06-10T14:49:16;100045.16;;;29.40;29.73
38806;BME280;25635;51.146;17.162;2023-06-10T14:54:31;100043.60;;;29.43;30.29
38806;BME280;25635;51.146;17.162;2023-06-10T14:56:58;100043.66;;;29.42;29.11
38806;BME280;25635;51.146;17.162;2023-06-10T14:59:25;100043.59;;;29.37;29.59
38806;BME280;25635;51.146;17.162;2023-06-10T15:01:52;100039.90;;;29.32;29.56
38806;BME280;25635;51.146;17.162;2023-06-10T15:04:18;100038.67;;;29.30;29.45
38806;BME280;25635;51.146;17.162;2023-06-10T15:06:49;100039.95;;;29.25;29.31
38806;BME280;25635;51.146;17.162;2023-06-10T15:09:17;100040.67;;;29.27;29.83
38806;BME280;25635;51.146;17.162;2023-06-10T15:11:47;100042.13;;;29.31;29.76
38806;BME280;25635;51.146;17.162;2023-06-10T15:14:14;100045.63;;;29.33;29.32
38806;BME280;25635;51.146;17.162;2023-06-10T15:16:43;100043.25;;;29.28;29.43
38806;BME280;25635;51.146;17.162;2023-06-10T15:22:11;100045.45;;;29.30;29.99
38806;BME280;25635;51.146;17.162;2023-06-10T15:28:12;100054.27;;;29.07;28.90
38806;BME280;25635;51.146;17.162;2023-06-10T15:37:34;100062.27;;;28.96;29.56
38806;BME280;25635;51.146;17.162;2023-06-10T15:47:51;100064.42;;;28.92;29.74
38806;BME280;25635;51.146;17.162;2023-06-10T15:53:34;100063.55;;;28.87;28.69
38806;BME280;25635;51.146;17.162;2023-06-10T15:56:01;100067.09;;;28.80;29.15
38806;BME280;25635;51.146;17.162;2023-06-10T15:58:27;100066.50;;;28.76;29.52
38806;BME280;25635;51.146;17.162;2023-06-10T16:00:54;100070.59;;;28.74;28.99
38806;BME280;25635;51.146;17.162;2023-06-10T16:03:20;100066.52;;;28.67;29.56
38806;BME280;25635;51.146;17.162;2023-06-10T16:05:47;100067.88;;;28.64;29.48
38806;BME280;25635;51.146;17.162;2023-06-10T16:08:14;100066.88;;;28.53;29.07
38806;BME280;25635;51.146;17.162;2023-06-10T16:10:40;100071.77;;;28.37;29.42
38806;BME280;25635;51.146;17.162;2023-06-10T16:13:07;100071.64;;;28.23;29.57
38806;BME280;25635;51.146;17.162;2023-06-10T16:15:34;100072.09;;;28.20;30.07
38806;BME280;25635;51.146;17.162;2023-06-10T16:18:01;100071.13;;;28.17;29.97